sensor_id;sensor_type;location;lat;lon;timestamp;P1;durP1;ratioP1;P2;durP2;ratioP2
462;SDS011;218;51.902;9.542;2022-11-15T00:02:09;7.60;;;6.90;;
462;SDS011;218;51.902;9.542;2022-11-15T00:04:37;8.13;;;7.43;;
462;SDS011;218;51.902;9.542;2022-11-15T00:07:04;8.90;;;8.20;;
462;SDS011;218;51.902;9.542;2022-11-15T00:09:31;9.63;;;8.50;;
462;SDS011;218;51.902;9.542;2022-11-15T00:11:59;10.03;;;9.23;;
462;SDS011;218;51.902;9.542;2022-11-15T00:14:26;8.00;;;7.40;;
462;SDS011;218;51.902;9.542;2022-11-15T00:16:53;8.13;;;7.17;;
462;SDS011;218;51.902;9.542;2022-11-15T00:19:20;9.60;;;8.73;;
462;SDS011;218;51.902;9.542;2022-11-15T00:21:48;9.60;;;8.70;;
462;SDS011;218;51.902;9.542;2022-11-15T00:24:15;8.03;;;7.43;;
462;SDS011;218;51.902;9.542;2022-11-15T00:26:42;10.13;;;9.07;;
462;SDS011;218;51.902;9.542;2022-11-15T00:29:09;10.57;;;8.07;;
462;SDS011;218;51.902;9.542;2022-11-15T00:31:37;8.90;;;8.17;;
462;SDS011;218;51.902;9.542;2022-11-15T00:34:04;9.20;;;8.30;;
462;SDS011;218;51.902;9.542;2022-11-15T00:36:32;8.23;;;7.53;;
462;SDS011;218;51.902;9.542;2022-11-15T00:39:02;8.70;;;8.00;;
462;SDS011;218;51.902;9.542;2022-11-15T00:41:30;9.93;;;9.03;;
462;SDS011;218;51.902;9.542;2022-11-15T00:43:57;9.53;;;8.53;;
462;SDS011;218;51.902;9.542;2022-11-15T00:46:23;8.50;;;7.70;;
462;SDS011;218;51.902;9.542;2022-11-15T00:48:51;8.07;;;7.40;;
462;SDS011;218;51.902;9.542;2022-11-15T00:51:18;8.20;;;7.50;;
462;SDS011;218;51.902;9.542;2022-11-15T00:53:45;8.60;;;7.90;;
462;SDS011;218;51.902;9.542;2022-11-15T00:56:14;9.67;;;8.87;;
462;SDS011;218;51.902;9.542;2022-11-15T00:58:41;10.10;;;9.10;;
462;SDS011;218;51.902;9.542;2022-11-15T01:01:08;11.63;;;10.33;;
462;SDS011;218;51.902;9.542;2022-11-15T01:03:37;9.30;;;8.50;;
462;SDS011;218;51.902;9.542;2022-11-15T01:06:05;9.23;;;8.57;;
462;SDS011;218;51.902;9.542;2022-11-15T01:08:33;9.90;;;8.90;;
462;SDS011;218;51.902;9.542;2022-11-15T01:11:00;10.63;;;9.63;;
462;SDS011;218;51.902;9.542;2022-11-15T01:13:30;8.87;;;8.17;;
462;SDS011;218;51.902;9.542;2022-11-15T01:15:58;10.50;;;8.33;;
462;SDS011;218;51.902;9.542;2022-11-15T01:18:25;9.70;;;8.80;;
462;SDS011;218;51.902;9.542;2022-11-15T01:20:52;11.20;;;10.30;;
462;SDS011;218;51.902;9.542;2022-11-15T01:23:19;10.40;;;9.50;;
462;SDS011;218;51.902;9.542;2022-11-15T01:25:46;10.73;;;9.73;;
462;SDS011;218;51.902;9.542;2022-11-15T01:28:14;10.33;;;9.30;;
462;SDS011;218;51.902;9.542;2022-11-15T01:30:42;11.17;;;9.80;;
462;SDS011;218;51.902;9.542;2022-11-15T01:33:09;11.70;;;10.53;;
462;SDS011;218;51.902;9.542;2022-11-15T01:35:38;10.07;;;9.13;;
462;SDS011;218;51.902;9.542;2022-11-15T01:38:06;9.90;;;8.93;;
462;SDS011;218;51.902;9.542;2022-11-15T01:40:33;12.80;;;11.63;;
462;SDS011;218;51.902;9.542;2022-11-15T01:45:47;15.57;;;11.90;;
462;SDS011;218;51.902;9.542;2022-11-15T01:48:17;12.33;;;11.13;;
462;SDS011;218;51.902;9.542;2022-11-15T01:50:44;13.80;;;12.37;;
462;SDS011;218;51.902;9.542;2022-11-15T01:53:11;13.17;;;11.70;;
462;SDS011;218;51.902;9.542;2022-11-15T01:55:38;12.50;;;11.20;;
462;SDS011;218;51.902;9.542;2022-11-15T01:58:05;9.20;;;8.50;;
462;SDS011;218;51.902;9.542;2022-11-15T02:00:34;10.60;;;9.50;;
462;SDS011;218;51.902;9.542;2022-11-15T02:03:02;10.60;;;9.70;;
462;SDS011;218;51.902;9.542;2022-11-15T02:05:30;11.13;;;9.77;;
462;SDS011;218;51.902;9.542;2022-11-15T02:07:57;11.30;;;10.17;;
462;SDS011;218;51.902;9.542;2022-11-15T02:10:25;10.87;;;9.10;;
462;SDS011;218;51.902;9.542;2022-11-15T02:12:52;9.77;;;8.87;;
462;SDS011;218;51.902;9.542;2022-11-15T02:15:21;8.70;;;7.67;;
462;SDS011;218;51.902;9.542;2022-11-15T02:17:56;10.73;;;9.07;;
462;SDS011;218;51.902;9.542;2022-11-15T02:26:19;10.67;;;9.80;;
462;SDS011;218;51.902;9.542;2022-11-15T02:29:26;10.03;;;8.70;;
462;SDS011;218;51.902;9.542;2022-11-15T02:32:06;9.77;;;8.77;;
462;SDS011;218;51.902;9.542;2022-11-15T02:34:43;9.87;;;8.87;;
462;SDS011;218;51.902;9.542;2022-11-15T02:37:15;11.10;;;8.13;;
462;SDS011;218;51.902;9.542;2022-11-15T02:39:45;9.60;;;8.60;;
462;SDS011;218;51.902;9.542;2022-11-15T02:42:14;7.90;;;7.30;;
462;SDS011;218;51.902;9.542;2022-11-15T02:45:03;8.23;;;7.43;;
462;SDS011;218;51.902;9.542;2022-11-15T02:47:34;8.13;;;7.33;;
462;SDS011;218;51.902;9.542;2022-11-15T02:50:08;8.33;;;7.63;;
462;SDS011;218;51.902;9.542;2022-11-15T02:52:37;9.00;;;8.10;;
462;SDS011;218;51.902;9.542;2022-11-15T02:55:05;8.23;;;7.43;;
462;SDS011;218;51.902;9.542;2022-11-15T02:57:36;8.57;;;7.87;;
462;SDS011;218;51.902;9.542;2022-11-15T03:00:17;8.03;;;7.33;;
462;SDS011;218;51.902;9.542;2022-11-15T03:02:51;9.47;;;8.57;;
462;SDS011;218;51.902;9.542;2022-11-15T03:05:25;8.67;;;7.87;;
462;SDS011;218;51.902;9.542;2022-11-15T03:08:02;8.40;;;7.70;;
462;SDS011;218;51.902;9.542;2022-11-15T03:10:36;7.67;;;7.00;;
462;SDS011;218;51.902;9.542;2022-11-15T03:13:10;6.03;;;5.53;;
462;SDS011;218;51.902;9.542;2022-11-15T03:15:41;8.50;;;7.80;;
462;SDS011;218;51.902;9.542;2022-11-15T03:18:12;8.67;;;7.80;;
462;SDS011;218;51.902;9.542;2022-11-15T03:20:45;6.90;;;6.50;;
462;SDS011;218;51.902;9.542;2022-11-15T03:23:13;8.10;;;7.40;;
462;SDS011;218;51.902;9.542;2022-11-15T03:25:41;8.13;;;7.07;;
462;SDS011;218;51.902;9.542;2022-11-15T03:28:12;7.57;;;6.80;;
462;SDS011;218;51.902;9.542;2022-11-15T03:30:40;8.03;;;7.23;;
462;SDS011;218;51.902;9.542;2022-11-15T03:33:08;8.37;;;7.67;;
462;SDS011;218;51.902;9.542;2022-11-15T03:35:39;7.40;;;6.57;;
462;SDS011;218;51.902;9.542;2022-11-15T03:38:09;9.07;;;8.17;;
462;SDS011;218;51.902;9.542;2022-11-15T03:40:41;8.70;;;8.10;;
462;SDS011;218;51.902;9.542;2022-11-15T03:43:14;7.73;;;7.13;;
462;SDS011;218;51.902;9.542;2022-11-15T03:45:50;8.40;;;7.70;;
462;SDS011;218;51.902;9.542;2022-11-15T03:48:20;7.40;;;6.90;;
462;SDS011;218;51.902;9.542;2022-11-15T03:50:48;7.60;;;7.10;;
462;SDS011;218;51.902;9.542;2022-11-15T03:53:16;8.00;;;7.30;;
462;SDS011;218;51.902;9.542;2022-11-15T03:55:43;7.53;;;6.90;;
462;SDS011;218;51.902;9.542;2022-11-15T03:58:10;7.90;;;7.23;;
462;SDS011;218;51.902;9.542;2022-11-15T04:00:37;7.63;;;7.00;;
462;SDS011;218;51.902;9.542;2022-11-15T04:03:04;7.07;;;6.37;;
462;SDS011;218;51.902;9.542;2022-11-15T04:05:33;6.10;;;5.70;;
462;SDS011;218;51.902;9.542;2022-11-15T04:08:00;7.00;;;6.57;;
462;SDS011;218;51.902;9.542;2022-11-15T04:10:27;7.90;;;7.30;;
462;SDS011;218;51.902;9.542;2022-11-15T04:12:55;8.03;;;7.33;;
462;SDS011;218;51.902;9.542;2022-11-15T04:15:22;8.87;;;8.03;;
462;SDS011;218;51.902;9.542;2022-11-15T04:17:50;10.10;;;9.20;;
462;SDS011;218;51.902;9.542;2022-11-15T04:20:18;7.90;;;7.30;;
462;SDS011;218;51.902;9.542;2022-11-15T04:23:06;9.60;;;8.70;;
462;SDS011;218;51.902;9.542;2022-11-15T04:25:54;8.80;;;8.00;;
462;SDS011;218;51.902;9.542;2022-11-15T04:28:22;10.53;;;9.43;;
462;SDS011;218;51.902;9.542;2022-11-15T04:30:49;10.90;;;9.90;;
462;SDS011;218;51.902;9.542;2022-11-15T04:33:16;11.47;;;9.60;;
462;SDS011;218;51.902;9.542;2022-11-15T04:35:43;9.57;;;8.40;;
462;SDS011;218;51.902;9.542;2022-11-15T04:38:31;8.70;;;7.83;;
462;SDS011;218;51.902;9.542;2022-11-15T04:40:58;8.70;;;8.00;;
462;SDS011;218;51.902;9.542;2022-11-15T04:43:26;9.00;;;8.07;;
462;SDS011;218;51.902;9.542;2022-11-15T04:45:53;8.07;;;6.63;;
462;SDS011;218;51.902;9.542;2022-11-15T04:48:20;6.10;;;5.70;;
462;SDS011;218;51.902;9.542;2022-11-15T04:50:47;6.23;;;5.73;;
462;SDS011;218;51.902;9.542;2022-11-15T04:53:14;5.83;;;5.30;;
462;SDS011;218;51.902;9.542;2022-11-15T04:55:45;5.90;;;5.40;;
462;SDS011;218;51.902;9.542;2022-11-15T04:58:12;6.10;;;5.60;;
462;SDS011;218;51.902;9.542;2022-11-15T05:00:39;5.87;;;5.40;;
462;SDS011;218;51.902;9.542;2022-11-15T05:03:06;6.23;;;5.73;;
462;SDS011;218;51.902;9.542;2022-11-15T05:05:53;6.90;;;6.30;;
462;SDS011;218;51.902;9.542;2022-11-15T05:08:20;6.90;;;6.30;;
462;SDS011;218;51.902;9.542;2022-11-15T05:10:48;6.00;;;5.60;;
462;SDS011;218;51.902;9.542;2022-11-15T05:13:15;5.63;;;5.20;;
462;SDS011;218;51.902;9.542;2022-11-15T05:15:42;7.03;;;6.63;;
462;SDS011;218;51.902;9.542;2022-11-15T05:18:12;4.80;;;4.50;;
462;SDS011;218;51.902;9.542;2022-11-15T05:20:38;5.80;;;5.40;;
462;SDS011;218;51.902;9.542;2022-11-15T05:23:05;6.47;;;5.97;;
462;SDS011;218;51.902;9.542;2022-11-15T05:25:32;7.53;;;6.77;;
462;SDS011;218;51.902;9.542;2022-11-15T05:28:01;6.07;;;5.57;;
462;SDS011;218;51.902;9.542;2022-11-15T05:30:28;6.03;;;5.53;;
462;SDS011;218;51.902;9.542;2022-11-15T05:32:55;6.00;;;5.50;;
462;SDS011;218;51.902;9.542;2022-11-15T05:35:26;6.10;;;5.70;;
462;SDS011;218;51.902;9.542;2022-11-15T05:37:57;6.83;;;6.30;;
462;SDS011;218;51.902;9.542;2022-11-15T05:40:24;6.23;;;5.80;;
462;SDS011;218;51.902;9.542;2022-11-15T05:42:51;6.17;;;5.67;;
462;SDS011;218;51.902;9.542;2022-11-15T05:45:20;5.87;;;5.30;;
462;SDS011;218;51.902;9.542;2022-11-15T05:47:47;7.53;;;6.83;;
462;SDS011;218;51.902;9.542;2022-11-15T05:50:15;6.97;;;6.37;;
462;SDS011;218;51.902;9.542;2022-11-15T05:52:44;8.50;;;6.43;;
462;SDS011;218;51.902;9.542;2022-11-15T05:55:12;7.67;;;7.07;;
462;SDS011;218;51.902;9.542;2022-11-15T05:57:40;6.43;;;5.87;;
462;SDS011;218;51.902;9.542;2022-11-15T06:00:08;7.53;;;6.93;;
462;SDS011;218;51.902;9.542;2022-11-15T06:02:36;7.50;;;6.80;;
462;SDS011;218;51.902;9.542;2022-11-15T06:05:04;6.83;;;6.30;;
462;SDS011;218;51.902;9.542;2022-11-15T06:07:31;7.10;;;6.47;;
462;SDS011;218;51.902;9.542;2022-11-15T06:10:01;6.83;;;6.33;;
462;SDS011;218;51.902;9.542;2022-11-15T06:12:28;6.60;;;6.10;;
462;SDS011;218;51.902;9.542;2022-11-15T06:14:54;7.43;;;6.83;;
462;SDS011;218;51.902;9.542;2022-11-15T06:17:21;7.67;;;7.03;;
462;SDS011;218;51.902;9.542;2022-11-15T06:19:50;6.67;;;6.03;;
462;SDS011;218;51.902;9.542;2022-11-15T06:22:17;6.40;;;5.90;;
462;SDS011;218;51.902;9.542;2022-11-15T06:24:44;6.33;;;5.73;;
462;SDS011;218;51.902;9.542;2022-11-15T06:27:12;6.23;;;5.77;;
462;SDS011;218;51.902;9.542;2022-11-15T06:29:39;6.80;;;6.20;;
462;SDS011;218;51.902;9.542;2022-11-15T06:32:06;6.67;;;6.07;;
462;SDS011;218;51.902;9.542;2022-11-15T06:34:33;5.77;;;5.37;;
462;SDS011;218;51.902;9.542;2022-11-15T06:37:02;7.23;;;6.53;;
462;SDS011;218;51.902;9.542;2022-11-15T06:39:29;6.30;;;5.67;;
462;SDS011;218;51.902;9.542;2022-11-15T06:41:56;6.13;;;5.53;;
462;SDS011;218;51.902;9.542;2022-11-15T06:44:23;6.43;;;6.03;;
462;SDS011;218;51.902;9.542;2022-11-15T06:46:50;6.03;;;5.47;;
462;SDS011;218;51.902;9.542;2022-11-15T06:49:17;6.23;;;5.70;;
462;SDS011;218;51.902;9.542;2022-11-15T06:51:45;5.83;;;5.33;;
462;SDS011;218;51.902;9.542;2022-11-15T06:54:13;5.30;;;4.90;;
462;SDS011;218;51.902;9.542;2022-11-15T06:56:40;5.93;;;5.43;;
462;SDS011;218;51.902;9.542;2022-11-15T06:59:07;5.43;;;5.10;;
462;SDS011;218;51.902;9.542;2022-11-15T07:01:35;6.07;;;5.13;;
462;SDS011;218;51.902;9.542;2022-11-15T07:04:02;5.17;;;4.70;;
462;SDS011;218;51.902;9.542;2022-11-15T07:06:29;6.40;;;5.90;;
462;SDS011;218;51.902;9.542;2022-11-15T07:08:56;5.07;;;4.67;;
462;SDS011;218;51.902;9.542;2022-11-15T07:11:24;6.17;;;5.77;;
462;SDS011;218;51.902;9.542;2022-11-15T07:13:51;5.07;;;4.80;;
462;SDS011;218;51.902;9.542;2022-11-15T07:16:18;5.90;;;5.50;;
462;SDS011;218;51.902;9.542;2022-11-15T07:18:45;5.80;;;5.37;;
462;SDS011;218;51.902;9.542;2022-11-15T07:21:13;4.20;;;3.90;;
462;SDS011;218;51.902;9.542;2022-11-15T07:23:39;4.77;;;4.47;;
462;SDS011;218;51.902;9.542;2022-11-15T07:26:07;5.50;;;5.00;;
462;SDS011;218;51.902;9.542;2022-11-15T07:28:36;5.17;;;4.77;;
462;SDS011;218;51.902;9.542;2022-11-15T07:31:03;6.03;;;5.43;;
462;SDS011;218;51.902;9.542;2022-11-15T07:33:30;6.57;;;5.97;;
462;SDS011;218;51.902;9.542;2022-11-15T07:35:58;6.47;;;5.87;;
462;SDS011;218;51.902;9.542;2022-11-15T07:38:26;6.53;;;5.70;;
462;SDS011;218;51.902;9.542;2022-11-15T07:40:58;6.23;;;5.63;;
462;SDS011;218;51.902;9.542;2022-11-15T07:43:26;5.60;;;5.20;;
462;SDS011;218;51.902;9.542;2022-11-15T07:45:56;5.50;;;5.00;;
462;SDS011;218;51.902;9.542;2022-11-15T07:48:23;6.03;;;5.57;;
462;SDS011;218;51.902;9.542;2022-11-15T07:50:50;6.13;;;5.53;;
462;SDS011;218;51.902;9.542;2022-11-15T07:53:17;6.20;;;5.80;;
462;SDS011;218;51.902;9.542;2022-11-15T07:55:44;6.10;;;5.60;;
462;SDS011;218;51.902;9.542;2022-11-15T07:58:11;5.93;;;5.43;;
462;SDS011;218;51.902;9.542;2022-11-15T08:00:39;6.37;;;5.83;;
462;SDS011;218;51.902;9.542;2022-11-15T08:03:08;4.87;;;4.43;;
462;SDS011;218;51.902;9.542;2022-11-15T08:05:36;5.67;;;5.27;;
462;SDS011;218;51.902;9.542;2022-11-15T08:08:04;5.70;;;5.20;;
462;SDS011;218;51.902;9.542;2022-11-15T08:10:31;5.23;;;4.73;;
462;SDS011;218;51.902;9.542;2022-11-15T08:12:59;7.27;;;4.90;;
462;SDS011;218;51.902;9.542;2022-11-15T08:15:27;8.30;;;5.80;;
462;SDS011;218;51.902;9.542;2022-11-15T08:17:55;6.97;;;6.33;;
462;SDS011;218;51.902;9.542;2022-11-15T08:20:24;6.87;;;6.17;;
462;SDS011;218;51.902;9.542;2022-11-15T08:22:54;7.83;;;6.97;;
462;SDS011;218;51.902;9.542;2022-11-15T08:25:21;5.93;;;5.43;;
462;SDS011;218;51.902;9.542;2022-11-15T08:27:51;5.73;;;5.23;;
462;SDS011;218;51.902;9.542;2022-11-15T08:30:19;9.20;;;7.33;;
462;SDS011;218;51.902;9.542;2022-11-15T08:32:46;9.80;;;7.80;;
462;SDS011;218;51.902;9.542;2022-11-15T08:35:13;9.40;;;8.60;;
462;SDS011;218;51.902;9.542;2022-11-15T08:37:42;6.20;;;5.80;;
462;SDS011;218;51.902;9.542;2022-11-15T08:40:11;6.30;;;5.40;;
462;SDS011;218;51.902;9.542;2022-11-15T08:42:41;8.60;;;7.90;;
462;SDS011;218;51.902;9.542;2022-11-15T08:45:08;7.07;;;6.37;;
462;SDS011;218;51.902;9.542;2022-11-15T08:47:36;8.10;;;6.30;;
462;SDS011;218;51.902;9.542;2022-11-15T08:50:03;9.07;;;8.17;;
462;SDS011;218;51.902;9.542;2022-11-15T08:52:30;8.33;;;7.60;;
462;SDS011;218;51.902;9.542;2022-11-15T08:55:01;7.33;;;6.70;;
462;SDS011;218;51.902;9.542;2022-11-15T08:57:28;6.97;;;6.20;;
462;SDS011;218;51.902;9.542;2022-11-15T08:59:55;7.00;;;5.97;;
462;SDS011;218;51.902;9.542;2022-11-15T09:02:22;6.30;;;5.80;;
462;SDS011;218;51.902;9.542;2022-11-15T09:04:49;7.40;;;6.70;;
462;SDS011;218;51.902;9.542;2022-11-15T09:07:17;5.90;;;5.40;;
462;SDS011;218;51.902;9.542;2022-11-15T09:09:46;5.60;;;5.07;;
462;SDS011;218;51.902;9.542;2022-11-15T09:12:14;5.47;;;5.00;;
462;SDS011;218;51.902;9.542;2022-11-15T09:14:41;5.20;;;4.30;;
462;SDS011;218;51.902;9.542;2022-11-15T09:17:08;4.47;;;4.17;;
462;SDS011;218;51.902;9.542;2022-11-15T09:19:35;4.90;;;4.60;;
462;SDS011;218;51.902;9.542;2022-11-15T09:22:05;4.50;;;4.20;;
462;SDS011;218;51.902;9.542;2022-11-15T09:24:32;4.30;;;4.00;;
462;SDS011;218;51.902;9.542;2022-11-15T09:26:59;4.10;;;3.80;;
462;SDS011;218;51.902;9.542;2022-11-15T09:29:31;4.73;;;3.73;;
462;SDS011;218;51.902;9.542;2022-11-15T09:31:57;4.13;;;3.83;;
462;SDS011;218;51.902;9.542;2022-11-15T09:34:24;4.73;;;4.30;;
462;SDS011;218;51.902;9.542;2022-11-15T09:36:52;3.83;;;3.60;;
462;SDS011;218;51.902;9.542;2022-11-15T09:39:18;4.50;;;4.20;;
462;SDS011;218;51.902;9.542;2022-11-15T09:42:08;4.50;;;4.20;;
462;SDS011;218;51.902;9.542;2022-11-15T09:44:56;3.77;;;3.57;;
462;SDS011;218;51.902;9.542;2022-11-15T09:47:46;3.90;;;3.70;;
462;SDS011;218;51.902;9.542;2022-11-15T09:50:28;4.30;;;3.90;;
462;SDS011;218;51.902;9.542;2022-11-15T09:52:57;4.60;;;3.80;;
462;SDS011;218;51.902;9.542;2022-11-15T09:55:31;5.03;;;4.53;;
462;SDS011;218;51.902;9.542;2022-11-15T09:58:15;4.47;;;4.17;;
462;SDS011;218;51.902;9.542;2022-11-15T10:00:46;4.67;;;4.37;;
462;SDS011;218;51.902;9.542;2022-11-15T10:03:18;4.00;;;3.70;;
462;SDS011;218;51.902;9.542;2022-11-15T10:05:47;4.13;;;3.70;;
462;SDS011;218;51.902;9.542;2022-11-15T10:08:28;3.97;;;3.77;;
462;SDS011;218;51.902;9.542;2022-11-15T10:11:04;4.00;;;3.70;;
462;SDS011;218;51.902;9.542;2022-11-15T10:13:34;4.50;;;4.17;;
462;SDS011;218;51.902;9.542;2022-11-15T10:16:07;3.97;;;3.60;;
462;SDS011;218;51.902;9.542;2022-11-15T10:18:48;4.20;;;4.00;;
462;SDS011;218;51.902;9.542;2022-11-15T10:21:23;4.30;;;4.00;;
462;SDS011;218;51.902;9.542;2022-11-15T10:23:51;3.50;;;3.30;;
462;SDS011;218;51.902;9.542;2022-11-15T10:26:19;3.70;;;3.50;;
462;SDS011;218;51.902;9.542;2022-11-15T10:28:49;3.63;;;3.43;;
462;SDS011;218;51.902;9.542;2022-11-15T10:31:22;4.17;;;3.77;;
462;SDS011;218;51.902;9.542;2022-11-15T10:33:50;3.77;;;3.57;;
462;SDS011;218;51.902;9.542;2022-11-15T10:36:23;5.53;;;5.03;;
462;SDS011;218;51.902;9.542;2022-11-15T10:38:52;3.70;;;3.50;;
462;SDS011;218;51.902;9.542;2022-11-15T10:41:29;3.80;;;3.60;;
462;SDS011;218;51.902;9.542;2022-11-15T10:44:11;3.90;;;3.67;;
462;SDS011;218;51.902;9.542;2022-11-15T10:46:48;5.00;;;4.50;;
462;SDS011;218;51.902;9.542;2022-11-15T10:49:33;3.90;;;3.60;;
462;SDS011;218;51.902;9.542;2022-11-15T10:52:01;4.10;;;3.90;;
462;SDS011;218;51.902;9.542;2022-11-15T10:54:42;4.47;;;4.17;;
462;SDS011;218;51.902;9.542;2022-11-15T10:57:13;3.57;;;3.30;;
462;SDS011;218;51.902;9.542;2022-11-15T10:59:43;4.40;;;4.00;;
462;SDS011;218;51.902;9.542;2022-11-15T11:02:31;4.90;;;4.60;;
462;SDS011;218;51.902;9.542;2022-11-15T11:04:59;3.90;;;3.70;;
462;SDS011;218;51.902;9.542;2022-11-15T11:07:27;4.23;;;3.80;;
462;SDS011;218;51.902;9.542;2022-11-15T11:09:59;4.50;;;4.10;;
462;SDS011;218;51.902;9.542;2022-11-15T11:12:42;4.93;;;4.53;;
462;SDS011;218;51.902;9.542;2022-11-15T11:15:10;4.40;;;4.10;;
462;SDS011;218;51.902;9.542;2022-11-15T11:17:48;4.30;;;4.00;;
462;SDS011;218;51.902;9.542;2022-11-15T11:20:21;4.47;;;4.17;;
462;SDS011;218;51.902;9.542;2022-11-15T11:22:57;4.77;;;4.37;;
462;SDS011;218;51.902;9.542;2022-11-15T11:25:30;4.00;;;3.70;;
462;SDS011;218;51.902;9.542;2022-11-15T11:28:14;4.57;;;4.27;;
462;SDS011;218;51.902;9.542;2022-11-15T11:30:54;4.70;;;4.30;;
462;SDS011;218;51.902;9.542;2022-11-15T11:33:29;5.10;;;4.70;;
462;SDS011;218;51.902;9.542;2022-11-15T11:36:03;8.20;;;4.53;;
462;SDS011;218;51.902;9.542;2022-11-15T11:38:47;4.73;;;3.70;;
462;SDS011;218;51.902;9.542;2022-11-15T11:41:23;4.53;;;4.20;;
462;SDS011;218;51.902;9.542;2022-11-15T11:44:04;4.77;;;4.27;;
462;SDS011;218;51.902;9.542;2022-11-15T11:46:48;4.97;;;4.60;;
462;SDS011;218;51.902;9.542;2022-11-15T11:49:23;3.93;;;3.63;;
462;SDS011;218;51.902;9.542;2022-11-15T11:51:56;4.30;;;4.10;;
462;SDS011;218;51.902;9.542;2022-11-15T11:54:30;4.53;;;4.23;;
462;SDS011;218;51.902;9.542;2022-11-15T11:57:02;3.83;;;3.53;;
462;SDS011;218;51.902;9.542;2022-11-15T11:59:33;7.33;;;5.27;;
462;SDS011;218;51.902;9.542;2022-11-15T12:02:11;3.97;;;3.67;;
462;SDS011;218;51.902;9.542;2022-11-15T12:04:50;3.50;;;3.20;;
462;SDS011;218;51.902;9.542;2022-11-15T12:07:20;3.90;;;3.47;;
462;SDS011;218;51.902;9.542;2022-11-15T12:09:55;4.03;;;3.73;;
462;SDS011;218;51.902;9.542;2022-11-15T12:12:29;4.47;;;4.17;;
462;SDS011;218;51.902;9.542;2022-11-15T12:15:02;5.30;;;4.23;;
462;SDS011;218;51.902;9.542;2022-11-15T12:17:30;3.70;;;3.50;;
462;SDS011;218;51.902;9.542;2022-11-15T12:20:02;4.27;;;3.90;;
462;SDS011;218;51.902;9.542;2022-11-15T12:22:36;3.23;;;3.03;;
462;SDS011;218;51.902;9.542;2022-11-15T12:25:14;3.83;;;3.63;;
462;SDS011;218;51.902;9.542;2022-11-15T12:27:45;3.70;;;3.40;;
462;SDS011;218;51.902;9.542;2022-11-15T12:30:16;3.10;;;2.90;;
462;SDS011;218;51.902;9.542;2022-11-15T12:32:49;5.20;;;4.37;;
462;SDS011;218;51.902;9.542;2022-11-15T12:35:32;4.43;;;4.10;;
462;SDS011;218;51.902;9.542;2022-11-15T12:38:03;3.97;;;3.67;;
462;SDS011;218;51.902;9.542;2022-11-15T12:40:36;4.03;;;3.70;;
462;SDS011;218;51.902;9.542;2022-11-15T12:45:52;3.67;;;3.47;;
462;SDS011;218;51.902;9.542;2022-11-15T12:51:13;3.80;;;3.60;;
462;SDS011;218;51.902;9.542;2022-11-15T12:53:43;3.87;;;3.43;;
462;SDS011;218;51.902;9.542;2022-11-15T12:58:53;3.70;;;3.50;;
462;SDS011;218;51.902;9.542;2022-11-15T13:04:26;3.70;;;3.50;;
462;SDS011;218;51.902;9.542;2022-11-15T13:06:56;3.67;;;3.40;;
462;SDS011;218;51.902;9.542;2022-11-15T13:15:31;3.30;;;3.10;;
462;SDS011;218;51.902;9.542;2022-11-15T13:20:52;3.60;;;3.40;;
462;SDS011;218;51.902;9.542;2022-11-15T13:23:21;3.00;;;2.80;;
462;SDS011;218;51.902;9.542;2022-11-15T13:26:12;4.60;;;4.30;;
462;SDS011;218;51.902;9.542;2022-11-15T13:28:42;3.67;;;3.47;;
462;SDS011;218;51.902;9.542;2022-11-15T13:31:24;4.33;;;4.07;;
462;SDS011;218;51.902;9.542;2022-11-15T13:33:56;3.67;;;3.37;;
462;SDS011;218;51.902;9.542;2022-11-15T13:36:28;3.17;;;2.97;;
462;SDS011;218;51.902;9.542;2022-11-15T13:39:00;3.30;;;3.10;;
462;SDS011;218;51.902;9.542;2022-11-15T13:41:29;3.30;;;3.10;;
462;SDS011;218;51.902;9.542;2022-11-15T13:43:57;3.60;;;3.40;;
462;SDS011;218;51.902;9.542;2022-11-15T13:46:26;2.97;;;2.67;;
462;SDS011;218;51.902;9.542;2022-11-15T13:48:54;4.33;;;3.93;;
462;SDS011;218;51.902;9.542;2022-11-15T13:51:25;3.20;;;3.07;;
462;SDS011;218;51.902;9.542;2022-11-15T13:53:57;3.30;;;3.10;;
462;SDS011;218;51.902;9.542;2022-11-15T13:56:33;3.93;;;3.63;;
462;SDS011;218;51.902;9.542;2022-11-15T13:59:07;3.93;;;3.73;;
462;SDS011;218;51.902;9.542;2022-11-15T14:01:35;3.17;;;2.90;;
462;SDS011;218;51.902;9.542;2022-11-15T14:04:02;3.57;;;3.37;;
462;SDS011;218;51.902;9.542;2022-11-15T14:06:29;3.40;;;3.20;;
462;SDS011;218;51.902;9.542;2022-11-15T14:08:59;3.77;;;3.47;;
462;SDS011;218;51.902;9.542;2022-11-15T14:11:30;3.60;;;3.33;;
462;SDS011;218;51.902;9.542;2022-11-15T14:14:11;3.77;;;3.53;;
462;SDS011;218;51.902;9.542;2022-11-15T14:16:41;3.27;;;3.07;;
462;SDS011;218;51.902;9.542;2022-11-15T14:19:10;4.00;;;3.30;;
462;SDS011;218;51.902;9.542;2022-11-15T14:25:07;3.60;;;3.40;;
462;SDS011;218;51.902;9.542;2022-11-15T14:27:43;3.87;;;3.57;;
462;SDS011;218;51.902;9.542;2022-11-15T14:30:14;4.37;;;3.83;;
462;SDS011;218;51.902;9.542;2022-11-15T14:32:43;3.67;;;3.37;;
462;SDS011;218;51.902;9.542;2022-11-15T14:35:14;5.30;;;4.20;;
462;SDS011;218;51.902;9.542;2022-11-15T14:37:44;4.20;;;3.90;;
462;SDS011;218;51.902;9.542;2022-11-15T14:40:12;3.60;;;3.23;;
462;SDS011;218;51.902;9.542;2022-11-15T14:42:40;4.13;;;3.83;;
462;SDS011;218;51.902;9.542;2022-11-15T14:45:11;4.40;;;4.10;;
462;SDS011;218;51.902;9.542;2022-11-15T14:47:39;4.43;;;4.13;;
462;SDS011;218;51.902;9.542;2022-11-15T14:50:11;5.13;;;4.73;;
462;SDS011;218;51.902;9.542;2022-11-15T14:52:38;5.37;;;4.93;;
462;SDS011;218;51.902;9.542;2022-11-15T14:55:12;7.17;;;6.50;;
462;SDS011;218;51.902;9.542;2022-11-15T14:57:44;7.30;;;5.70;;
462;SDS011;218;51.902;9.542;2022-11-15T15:00:12;6.40;;;5.90;;
462;SDS011;218;51.902;9.542;2022-11-15T15:02:40;8.07;;;6.13;;
462;SDS011;218;51.902;9.542;2022-11-15T15:05:12;7.53;;;6.70;;
462;SDS011;218;51.902;9.542;2022-11-15T15:07:41;8.13;;;7.33;;
462;SDS011;218;51.902;9.542;2022-11-15T15:10:08;7.57;;;6.73;;
462;SDS011;218;51.902;9.542;2022-11-15T15:12:35;8.20;;;7.50;;
462;SDS011;218;51.902;9.542;2022-11-15T15:15:04;8.37;;;7.67;;
462;SDS011;218;51.902;9.542;2022-11-15T15:17:32;8.30;;;7.43;;
462;SDS011;218;51.902;9.542;2022-11-15T15:19:59;7.70;;;7.00;;
462;SDS011;218;51.902;9.542;2022-11-15T15:22:26;7.57;;;6.97;;
462;SDS011;218;51.902;9.542;2022-11-15T15:24:55;7.80;;;7.17;;
462;SDS011;218;51.902;9.542;2022-11-15T15:27:22;7.10;;;6.60;;
462;SDS011;218;51.902;9.542;2022-11-15T15:29:49;6.30;;;5.73;;
462;SDS011;218;51.902;9.542;2022-11-15T15:32:17;6.30;;;5.73;;
462;SDS011;218;51.902;9.542;2022-11-15T15:34:44;6.93;;;6.33;;
462;SDS011;218;51.902;9.542;2022-11-15T15:37:21;6.90;;;6.30;;
462;SDS011;218;51.902;9.542;2022-11-15T15:39:50;8.00;;;6.33;;
462;SDS011;218;51.902;9.542;2022-11-15T15:42:17;6.33;;;5.83;;
462;SDS011;218;51.902;9.542;2022-11-15T15:44:45;5.93;;;5.40;;
462;SDS011;218;51.902;9.542;2022-11-15T15:47:12;5.70;;;5.20;;
462;SDS011;218;51.902;9.542;2022-11-15T15:49:43;7.43;;;5.80;;
462;SDS011;218;51.902;9.542;2022-11-15T15:52:10;5.67;;;5.30;;
462;SDS011;218;51.902;9.542;2022-11-15T15:54:37;6.40;;;5.87;;
462;SDS011;218;51.902;9.542;2022-11-15T15:57:04;5.50;;;5.10;;
462;SDS011;218;51.902;9.542;2022-11-15T15:59:32;6.30;;;5.80;;
462;SDS011;218;51.902;9.542;2022-11-15T16:01:58;6.80;;;6.17;;
462;SDS011;218;51.902;9.542;2022-11-15T16:04:28;6.83;;;6.33;;
462;SDS011;218;51.902;9.542;2022-11-15T16:06:59;6.13;;;5.67;;
462;SDS011;218;51.902;9.542;2022-11-15T16:09:26;7.10;;;6.50;;
462;SDS011;218;51.902;9.542;2022-11-15T16:12:11;6.23;;;5.40;;
462;SDS011;218;51.902;9.542;2022-11-15T16:14:39;6.37;;;5.80;;
462;SDS011;218;51.902;9.542;2022-11-15T16:17:08;6.57;;;6.07;;
462;SDS011;218;51.902;9.542;2022-11-15T16:19:42;6.90;;;6.40;;
462;SDS011;218;51.902;9.542;2022-11-15T16:22:11;6.93;;;6.33;;
462;SDS011;218;51.902;9.542;2022-11-15T16:24:38;6.70;;;6.10;;
462;SDS011;218;51.902;9.542;2022-11-15T16:27:05;6.53;;;6.10;;
462;SDS011;218;51.902;9.542;2022-11-15T16:29:38;7.07;;;6.47;;
462;SDS011;218;51.902;9.542;2022-11-15T16:32:05;6.30;;;5.80;;
462;SDS011;218;51.902;9.542;2022-11-15T16:34:32;6.90;;;6.30;;
462;SDS011;218;51.902;9.542;2022-11-15T16:36:59;6.60;;;6.10;;